sensor_id;sensor_type;location;lat;lon;timestamp;pressure;altitude;pressure_sealevel;temperature;humidity
68145;BME280;55400;51.824;-0.196;2023-04-03T00:02:28;102163.12000000001;;;5.78;61.03
68145;BME280;55400;51.824;-0.196;2023-04-03T00:06:28;102163.12000000001;;;5.75;61.03
68145;BME280;55400;51.824;-0.196;2023-04-03T00:10:28;102160.27;;;5.72;61.26
68145;BME280;55400;51.824;-0.196;2023-04-03T00:14:28;102160.06;;;5.69;61.16
68145;BME280;55400;51.824;-0.196;2023-04-03T00:18:28;102153.38;;;5.66;61.27
68145;BME280;55400;51.824;-0.196;2023-04-03T00:22:28;102154.19;;;5.62;61.32
68145;BME280;55400;51.824;-0.196;2023-04-03T00:26:28;102151.25;;;5.59;61.41
68145;BME280;55400;51.824;-0.196;2023-04-03T00:30:28;102148.0;;;5.56;61.47
68145;BME280;55400;51.824;-0.196;2023-04-03T00:34:28;102148.0;;;5.53;61.47
68145;BME280;55400;51.824;-0.196;2023-04-03T00:38:28;102147.03;;;5.47;61.65
68145;BME280;55400;51.824;-0.196;2023-04-03T00:42:28;102147.03;;;5.44;61.65
68145;BME280;55400;51.824;-0.196;2023-04-03T00:46:28;102142.83;;;5.35;61.81
68145;BME280;55400;51.824;-0.196;2023-04-03T00:50:28;102144.83;;;5.30;62.00
68145;BME280;55400;51.824;-0.196;2023-04-03T00:54:28;102149.58;;;5.28;62.12
68145;BME280;55400;51.824;-0.196;2023-04-03T00:58:31;102149.58;;;5.22;62.20
68145;BME280;55400;51.824;-0.196;2023-04-03T01:02:28;102140.99;;;5.16;62.55
68145;BME280;55400;51.824;-0.196;2023-04-03T01:06:28;102137.43;;;5.12;62.55
68145;BME280;55400;51.824;-0.196;2023-04-03T01:10:28;102134.0;;;5.11;62.60
68145;BME280;55400;51.824;-0.196;2023-04-03T01:14:28;102135.69;;;5.07;62.72
68145;BME280;55400;51.824;-0.196;2023-04-03T01:18:28;102132.92;;;5.03;62.78
68145;BME280;55400;51.824;-0.196;2023-04-03T01:22:28;102132.92;;;5.00;62.78
68145;BME280;55400;51.824;-0.196;2023-04-03T01:26:28;102129.54999999999;;;4.96;62.90
68145;BME280;55400;51.824;-0.196;2023-04-03T01:30:30;102121.62;;;4.86;63.29
68145;BME280;55400;51.824;-0.196;2023-04-03T01:34:28;102126.09;;;4.82;63.36
68145;BME280;55400;51.824;-0.196;2023-04-03T01:38:28;102123.51999999999;;;4.79;63.36
68145;BME280;55400;51.824;-0.196;2023-04-03T01:42:28;102123.13;;;4.76;63.59
68145;BME280;55400;51.824;-0.196;2023-04-03T01:46:28;102123.13;;;4.72;63.56
68145;BME280;55400;51.824;-0.196;2023-04-03T01:54:28;102119.7;;;4.66;63.68
68145;BME280;55400;51.824;-0.196;2023-04-03T01:58:28;102124.91;;;4.62;63.75
68145;BME280;55400;51.824;-0.196;2023-04-03T02:02:28;102119.98;;;4.59;63.86
68145;BME280;55400;51.824;-0.196;2023-04-03T02:06:28;102125.86;;;4.56;63.91
68145;BME280;55400;51.824;-0.196;2023-04-03T02:10:28;102125.86;;;4.54;64.01
68145;BME280;55400;51.824;-0.196;2023-04-03T02:14:28;102125.51;;;4.51;64.04
68145;BME280;55400;51.824;-0.196;2023-04-03T02:18:28;102123.35;;;4.49;64.04
68145;BME280;55400;51.824;-0.196;2023-04-03T02:22:28;102124.06;;;4.42;64.20
68145;BME280;55400;51.824;-0.196;2023-04-03T02:26:28;102124.06;;;4.38;64.42
68145;BME280;55400;51.824;-0.196;2023-04-03T02:30:28;102122.88;;;4.35;64.59
68145;BME280;55400;51.824;-0.196;2023-04-03T02:34:28;102119.28;;;4.30;64.59
68145;BME280;55400;51.824;-0.196;2023-04-03T02:38:28;102120.12;;;4.27;64.82
68145;BME280;55400;51.824;-0.196;2023-04-03T02:42:28;102114.69;;;4.28;64.86
68145;BME280;55400;51.824;-0.196;2023-04-03T02:50:28;102113.56;;;4.26;64.97
68145;BME280;55400;51.824;-0.196;2023-04-03T02:58:28;102110.06;;;4.27;65.09
68145;BME280;55400;51.824;-0.196;2023-04-03T03:02:28;102110.24;;;4.26;65.08
68145;BME280;55400;51.824;-0.196;2023-04-03T03:06:28;102115.16;;;4.23;65.05
68145;BME280;55400;51.824;-0.196;2023-04-03T03:10:28;102106.44;;;4.20;64.92
68145;BME280;55400;51.824;-0.196;2023-04-03T03:14:28;102101.75;;;4.17;64.92
68145;BME280;55400;51.824;-0.196;2023-04-03T03:18:28;102102.87;;;4.14;65.14
68145;BME280;55400;51.824;-0.196;2023-04-03T03:22:28;102102.87;;;4.10;65.14
68145;BME280;55400;51.824;-0.196;2023-04-03T03:26:28;102098.39;;;4.04;65.13
68145;BME280;55400;51.824;-0.196;2023-04-03T03:30:28;102102.66;;;3.98;65.12
68145;BME280;55400;51.824;-0.196;2023-04-03T03:34:28;102102.66;;;3.81;65.12
68145;BME280;55400;51.824;-0.196;2023-04-03T03:38:28;102103.65000000001;;;3.66;64.22
68145;BME280;55400;51.824;-0.196;2023-04-03T03:42:28;102103.65000000001;;;3.58;64.63
68145;BME280;55400;51.824;-0.196;2023-04-03T03:46:28;102096.28;;;3.50;65.65
68145;BME280;55400;51.824;-0.196;2023-04-03T03:50:28;102098.54000000001;;;3.47;65.65
68145;BME280;55400;51.824;-0.196;2023-04-03T03:54:28;102097.92;;;3.40;65.56
68145;BME280;55400;51.824;-0.196;2023-04-03T03:58:28;102097.92;;;3.37;65.58
68145;BME280;55400;51.824;-0.196;2023-04-03T04:02:28;102094.18;;;3.32;65.90
68145;BME280;55400;51.824;-0.196;2023-04-03T04:06:28;102093.03;;;3.29;66.25
68145;BME280;55400;51.824;-0.196;2023-04-03T04:10:28;102093.03;;;3.20;66.25
68145;BME280;55400;51.824;-0.196;2023-04-03T04:14:28;102088.28;;;3.22;66.31
68145;BME280;55400;51.824;-0.196;2023-04-03T04:18:28;102094.73000000001;;;3.23;66.97
68145;BME280;55400;51.824;-0.196;2023-04-03T04:22:28;102086.37999999999;;;3.26;66.82
68145;BME280;55400;51.824;-0.196;2023-04-03T04:26:28;102086.37999999999;;;3.24;66.88
68145;BME280;55400;51.824;-0.196;2023-04-03T04:34:29;102084.56999999999;;;3.22;66.91
68145;BME280;55400;51.824;-0.196;2023-04-03T04:38:28;102087.59;;;3.20;67.03
68145;BME280;55400;51.824;-0.196;2023-04-03T04:50:29;102092.13;;;3.26;67.70
68145;BME280;55400;51.824;-0.196;2023-04-03T04:54:28;102085.79;;;3.30;67.88
68145;BME280;55400;51.824;-0.196;2023-04-03T04:58:28;102085.79;;;3.32;67.88
68145;BME280;55400;51.824;-0.196;2023-04-03T05:02:28;102087.95;;;3.33;68.05
68145;BME280;55400;51.824;-0.196;2023-04-03T05:10:29;102097.94;;;3.34;68.00
68145;BME280;55400;51.824;-0.196;2023-04-03T05:14:28;102094.96;;;3.36;68.46
68145;BME280;55400;51.824;-0.196;2023-04-03T05:18:29;102098.18000000001;;;3.42;68.46
68145;BME280;55400;51.824;-0.196;2023-04-03T05:22:28;102098.18000000001;;;3.44;68.46
68145;BME280;55400;51.824;-0.196;2023-04-03T05:26:29;102102.59;;;3.41;68.30
68145;BME280;55400;51.824;-0.196;2023-04-03T05:30:28;102100.98000000001;;;3.43;68.84
68145;BME280;55400;51.824;-0.196;2023-04-03T05:34:29;102096.42;;;3.47;68.86
68145;BME280;55400;51.824;-0.196;2023-04-03T05:38:28;102096.47;;;3.50;68.90
68145;BME280;55400;51.824;-0.196;2023-04-03T05:42:28;102098.32;;;3.57;68.83
68145;BME280;55400;51.824;-0.196;2023-04-03T05:46:28;102098.29999999999;;;3.61;69.18
68145;BME280;55400;51.824;-0.196;2023-04-03T05:50:28;102098.29999999999;;;3.66;69.18
68145;BME280;55400;51.824;-0.196;2023-04-03T05:54:29;102103.56;;;3.71;69.19
68145;BME280;55400;51.824;-0.196;2023-04-03T05:58:28;102104.33;;;3.73;69.19
68145;BME280;55400;51.824;-0.196;2023-04-03T06:02:29;102104.33;;;3.75;69.48
68145;BME280;55400;51.824;-0.196;2023-04-03T06:14:29;102110.23;;;3.83;69.62
68145;BME280;55400;51.824;-0.196;2023-04-03T06:18:29;102113.92;;;3.86;69.49
68145;BME280;55400;51.824;-0.196;2023-04-03T06:22:29;102119.67;;;3.93;69.60
68145;BME280;55400;51.824;-0.196;2023-04-03T06:26:29;102112.66;;;3.96;70.14
68145;BME280;55400;51.824;-0.196;2023-04-03T06:30:29;102113.83;;;4.00;70.16
68145;BME280;55400;51.824;-0.196;2023-04-03T06:34:29;102113.83;;;4.08;70.16
68145;BME280;55400;51.824;-0.196;2023-04-03T06:38:29;102111.94;;;4.13;70.08
68145;BME280;55400;51.824;-0.196;2023-04-03T06:42:29;102118.02;;;4.17;69.77
68145;BME280;55400;51.824;-0.196;2023-04-03T06:46:29;102116.74;;;4.21;70.04
68145;BME280;55400;51.824;-0.196;2023-04-03T06:50:29;102116.74;;;4.25;69.66
68145;BME280;55400;51.824;-0.196;2023-04-03T06:54:29;102117.35;;;4.27;69.66
68145;BME280;55400;51.824;-0.196;2023-04-03T06:58:29;102119.86;;;4.31;69.59
68145;BME280;55400;51.824;-0.196;2023-04-03T07:02:29;102119.86;;;4.33;70.34
68145;BME280;55400;51.824;-0.196;2023-04-03T07:06:29;102116.56;;;4.43;69.80
68145;BME280;55400;51.824;-0.196;2023-04-03T07:10:29;102125.42;;;4.53;70.01
68145;BME280;55400;51.824;-0.196;2023-04-03T07:14:29;102125.42;;;4.61;69.58
68145;BME280;55400;51.824;-0.196;2023-04-03T07:18:29;102124.23999999999;;;4.71;69.31
68145;BME280;55400;51.824;-0.196;2023-04-03T07:22:29;102114.54;;;4.80;69.49
68145;BME280;55400;51.824;-0.196;2023-04-03T07:26:29;102110.67;;;4.89;69.66
68145;BME280;55400;51.824;-0.196;2023-04-03T07:30:29;102110.46;;;4.98;69.28
68145;BME280;55400;51.824;-0.196;2023-04-03T07:34:29;102110.46;;;5.02;69.51
68145;BME280;55400;51.824;-0.196;2023-04-03T07:38:29;102108.18000000001;;;5.12;69.47
68145;BME280;55400;51.824;-0.196;2023-04-03T07:42:29;102120.28;;;5.25;69.13
68145;BME280;55400;51.824;-0.196;2023-04-03T07:46:29;102121.84;;;5.36;69.04
68145;BME280;55400;51.824;-0.196;2023-04-03T07:50:29;102118.64;;;5.39;69.15
68145;BME280;55400;51.824;-0.196;2023-04-03T07:54:29;102119.0;;;5.49;69.15
68145;BME280;55400;51.824;-0.196;2023-04-03T07:58:29;102120.73000000001;;;5.57;69.08
68145;BME280;55400;51.824;-0.196;2023-04-03T08:02:29;102127.55;;;5.63;69.22
68145;BME280;55400;51.824;-0.196;2023-04-03T08:06:30;102129.53;;;5.72;69.36
68145;BME280;55400;51.824;-0.196;2023-04-03T08:10:29;102129.53;;;5.80;69.81
68145;BME280;55400;51.824;-0.196;2023-04-03T08:14:30;102130.40999999999;;;5.87;69.62
68145;BME280;55400;51.824;-0.196;2023-04-03T08:18:29;102127.20000000001;;;6.00;69.62
68145;BME280;55400;51.824;-0.196;2023-04-03T08:22:29;102131.54;;;6.16;69.49
68145;BME280;55400;51.824;-0.196;2023-04-03T08:26:29;102133.26;;;6.34;69.07
68145;BME280;55400;51.824;-0.196;2023-04-03T08:30:29;102128.44;;;6.48;68.68
68145;BME280;55400;51.824;-0.196;2023-04-03T08:34:29;102133.64;;;6.57;68.68
68145;BME280;55400;51.824;-0.196;2023-04-03T08:38:29;102133.64;;;6.64;68.22
68145;BME280;55400;51.824;-0.196;2023-04-03T08:42:34;102130.26999999999;;;6.61;68.51
68145;BME280;55400;51.824;-0.196;2023-04-03T08:46:32;102133.06;;;6.71;68.49
68145;BME280;55400;51.824;-0.196;2023-04-03T08:50:30;102135.24;;;6.84;68.45
68145;BME280;55400;51.824;-0.196;2023-04-03T08:54:30;102132.78;;;6.96;68.45
68145;BME280;55400;51.824;-0.196;2023-04-03T08:58:29;102131.37000000001;;;7.03;68.35
68145;BME280;55400;51.824;-0.196;2023-04-03T09:02:31;102131.37000000001;;;7.11;68.19
68145;BME280;55400;51.824;-0.196;2023-04-03T09:06:30;102126.73;;;7.21;67.89
68145;BME280;55400;51.824;-0.196;2023-04-03T09:10:30;102125.19;;;7.42;66.67
68145;BME280;55400;51.824;-0.196;2023-04-03T09:14:30;102123.6;;;7.49;66.67
68145;BME280;55400;51.824;-0.196;2023-04-03T09:18:30;102123.6;;;7.48;66.48
68145;BME280;55400;51.824;-0.196;2023-04-03T09:22:31;102114.33;;;7.57;66.41
68145;BME280;55400;51.824;-0.196;2023-04-03T09:26:30;102115.03;;;7.73;66.21
68145;BME280;55400;51.824;-0.196;2023-04-03T09:30:29;102117.66;;;7.84;65.69
68145;BME280;55400;51.824;-0.196;2023-04-03T09:34:30;102114.04;;;7.92;64.96
68145;BME280;55400;51.824;-0.196;2023-04-03T09:38:29;102114.97;;;7.89;64.96
68145;BME280;55400;51.824;-0.196;2023-04-03T09:42:30;102115.45;;;7.94;65.01
68145;BME280;55400;51.824;-0.196;2023-04-03T09:46:33;102115.45;;;8.04;65.01
68145;BME280;55400;51.824;-0.196;2023-04-03T09:50:29;102117.69;;;8.08;63.70
68145;BME280;55400;51.824;-0.196;2023-04-03T09:54:31;102117.69;;;8.02;63.70
68145;BME280;55400;51.824;-0.196;2023-04-03T09:58:30;102112.23;;;8.04;63.24
68145;BME280;55400;51.824;-0.196;2023-04-03T10:02:32;102120.45000000001;;;8.09;64.12
68145;BME280;55400;51.824;-0.196;2023-04-03T10:06:31;102120.45000000001;;;8.20;64.12
68145;BME280;55400;51.824;-0.196;2023-04-03T10:14:30;102116.29000000001;;;8.26;63.06
68145;BME280;55400;51.824;-0.196;2023-04-03T10:18:31;102113.01;;;8.35;62.39
68145;BME280;55400;51.824;-0.196;2023-04-03T10:22:32;102117.88;;;8.41;62.15
68145;BME280;55400;51.824;-0.196;2023-04-03T10:26:32;102117.88;;;8.49;61.75
68145;BME280;55400;51.824;-0.196;2023-04-03T10:30:32;102116.27;;;8.64;60.81
68145;BME280;55400;51.824;-0.196;2023-04-03T10:34:30;102116.27;;;8.69;61.23
68145;BME280;55400;51.824;-0.196;2023-04-03T10:38:31;102112.73;;;8.80;60.69
68145;BME280;55400;51.824;-0.196;2023-04-03T10:42:32;102112.73;;;8.87;60.10
68145;BME280;55400;51.824;-0.196;2023-04-03T10:46:31;102108.03;;;8.84;60.38
68145;BME280;55400;51.824;-0.196;2023-04-03T10:50:31;102108.92;;;8.86;59.83
68145;BME280;55400;51.824;-0.196;2023-04-03T10:54:30;102108.92;;;8.88;58.64
68145;BME280;55400;51.824;-0.196;2023-04-03T10:58:30;102109.12;;;8.90;59.37
68145;BME280;55400;51.824;-0.196;2023-04-03T11:02:30;102103.81;;;8.95;59.14
68145;BME280;55400;51.824;-0.196;2023-04-03T11:06:31;102094.59000000001;;;9.05;58.25
68145;BME280;55400;51.824;-0.196;2023-04-03T11:10:31;102094.59000000001;;;9.09;58.25
68145;BME280;55400;51.824;-0.196;2023-04-03T11:14:30;102088.61;;;9.21;58.49
68145;BME280;55400;51.824;-0.196;2023-04-03T11:18:32;102081.22;;;9.26;58.49
68145;BME280;55400;51.824;-0.196;2023-04-03T11:22:30;102081.22;;;9.30;56.59
68145;BME280;55400;51.824;-0.196;2023-04-03T11:26:30;102078.23;;;9.36;57.59
68145;BME280;55400;51.824;-0.196;2023-04-03T11:30:32;102078.15000000001;;;9.39;57.95
68145;BME280;55400;51.824;-0.196;2023-04-03T11:34:31;102078.15000000001;;;9.48;57.97
68145;BME280;55400;51.824;-0.196;2023-04-03T11:38:30;102067.42;;;9.55;56.93
68145;BME280;55400;51.824;-0.196;2023-04-03T11:42:31;102067.42;;;9.66;56.93
68145;BME280;55400;51.824;-0.196;2023-04-03T11:50:30;102055.26999999999;;;9.89;57.75
68145;BME280;55400;51.824;-0.196;2023-04-03T11:58:30;102047.34;;;9.96;55.67
68145;BME280;55400;51.824;-0.196;2023-04-03T12:02:37;102047.11;;;10.01;56.70
68145;BME280;55400;51.824;-0.196;2023-04-03T12:10:30;102044.61;;;10.07;54.86
68145;BME280;55400;51.824;-0.196;2023-04-03T12:14:30;102035.67;;;10.24;55.48
68145;BME280;55400;51.824;-0.196;2023-04-03T12:18:36;102028.36;;;10.42;55.48
68145;BME280;55400;51.824;-0.196;2023-04-03T12:22:30;102028.36;;;10.61;55.27
68145;BME280;55400;51.824;-0.196;2023-04-03T12:26:31;102024.45;;;10.86;54.00
68145;BME280;55400;51.824;-0.196;2023-04-03T12:30:30;102024.45;;;10.96;54.42
68145;BME280;55400;51.824;-0.196;2023-04-03T12:34:37;102019.81;;;10.93;53.10
68145;BME280;55400;51.824;-0.196;2023-04-03T12:38:37;102017.28;;;10.97;53.30
68145;BME280;55400;51.824;-0.196;2023-04-03T12:42:32;102008.17;;;11.05;52.98
68145;BME280;55400;51.824;-0.196;2023-04-03T12:46:33;102014.0;;;11.08;52.46
68145;BME280;55400;51.824;-0.196;2023-04-03T12:50:30;102006.33;;;11.11;52.18
68145;BME280;55400;51.824;-0.196;2023-04-03T12:54:30;102004.98999999999;;;11.21;52.91
68145;BME280;55400;51.824;-0.196;2023-04-03T12:58:30;102004.98999999999;;;11.31;52.54
68145;BME280;55400;51.824;-0.196;2023-04-03T13:02:30;102001.29;;;11.34;53.02
68145;BME280;55400;51.824;-0.196;2023-04-03T13:06:30;101997.66;;;11.38;52.34
68145;BME280;55400;51.824;-0.196;2023-04-03T13:10:30;101991.08;;;11.46;50.58
68145;BME280;55400;51.824;-0.196;2023-04-03T13:14:30;101990.22;;;11.50;48.13
68145;BME280;55400;51.824;-0.196;2023-04-03T13:18:30;101990.22;;;11.52;48.13
68145;BME280;55400;51.824;-0.196;2023-04-03T13:22:31;101995.11;;;11.60;50.87
68145;BME280;55400;51.824;-0.196;2023-04-03T13:26:30;101988.86;;;11.65;51.42
68145;BME280;55400;51.824;-0.196;2023-04-03T13:30:30;101988.86;;;11.73;51.21
68145;BME280;55400;51.824;-0.196;2023-04-03T13:34:35;101988.31;;;11.83;49.83
68145;BME280;55400;51.824;-0.196;2023-04-03T13:38:30;101967.75;;;11.86;49.66
68145;BME280;55400;51.824;-0.196;2023-04-03T13:42:31;101967.72;;;11.82;48.44
68145;BME280;55400;51.824;-0.196;2023-04-03T13:46:30;101964.81999999999;;;11.81;48.44
68145;BME280;55400;51.824;-0.196;2023-04-03T13:50:30;101958.86;;;11.90;49.37
68145;BME280;55400;51.824;-0.196;2023-04-03T13:54:31;101961.15999999999;;;11.99;50.62
68145;BME280;55400;51.824;-0.196;2023-04-03T13:58:30;101961.15999999999;;;11.98;50.62
68145;BME280;55400;51.824;-0.196;2023-04-03T14:02:31;101954.78;;;12.04;48.49
68145;BME280;55400;51.824;-0.196;2023-04-03T14:06:30;101950.27;;;12.15;48.83
68145;BME280;55400;51.824;-0.196;2023-04-03T14:10:30;101950.27;;;12.24;48.83
68145;BME280;55400;51.824;-0.196;2023-04-03T14:14:30;101946.86;;;12.36;48.44
68145;BME280;55400;51.824;-0.196;2023-04-03T14:18:30;101935.86;;;12.44;48.05
68145;BME280;55400;51.824;-0.196;2023-04-03T14:22:31;101933.76;;;12.54;48.64
68145;BME280;55400;51.824;-0.196;2023-04-03T14:26:30;101933.76;;;12.64;48.64
68145;BME280;55400;51.824;-0.196;2023-04-03T14:30:31;101940.25;;;12.73;48.63
68145;BME280;55400;51.824;-0.196;2023-04-03T14:34:30;101930.44;;;12.81;48.01
68145;BME280;55400;51.824;-0.196;2023-04-03T14:38:30;101920.14;;;12.82;48.01
68145;BME280;55400;51.824;-0.196;2023-04-03T14:42:30;101918.40999999999;;;12.80;46.91
68145;BME280;55400;51.824;-0.196;2023-04-03T14:46:31;101916.22;;;12.83;46.84
68145;BME280;55400;51.824;-0.196;2023-04-03T14:50:30;101906.47;;;12.94;47.08
68145;BME280;55400;51.824;-0.196;2023-04-03T14:54:30;101906.38;;;13.05;47.08
68145;BME280;55400;51.824;-0.196;2023-04-03T14:58:30;101906.38;;;13.21;46.69
68145;BME280;55400;51.824;-0.196;2023-04-03T15:02:31;101902.43000000001;;;13.20;46.30
68145;BME280;55400;51.824;-0.196;2023-04-03T15:10:30;101898.87999999999;;;13.22;46.69
68145;BME280;55400;51.824;-0.196;2023-04-03T15:14:30;101890.32999999999;;;13.30;46.30
68145;BME280;55400;51.824;-0.196;2023-04-03T15:18:30;101880.7;;;13.19;45.93
68145;BME280;55400;51.824;-0.196;2023-04-03T15:22:30;101872.27;;;13.09;45.93
68145;BME280;55400;51.824;-0.196;2023-04-03T15:26:30;101868.48;;;13.26;45.19
68145;BME280;55400;51.824;-0.196;2023-04-03T15:30:30;101868.48;;;13.41;47.02
68145;BME280;55400;51.824;-0.196;2023-04-03T15:34:30;101878.72;;;13.57;46.34
68145;BME280;55400;51.824;-0.196;2023-04-03T15:38:30;101878.72;;;13.75;46.06
68145;BME280;55400;51.824;-0.196;2023-04-03T15:42:30;101881.62;;;13.70;43.77
68145;BME280;55400;51.824;-0.196;2023-04-03T15:46:30;101882.69;;;13.79;43.83
68145;BME280;55400;51.824;-0.196;2023-04-03T15:50:30;101885.90000000001;;;13.97;43.83
68145;BME280;55400;51.824;-0.196;2023-04-03T15:54:30;101885.02;;;14.10;44.38
68145;BME280;55400;51.824;-0.196;2023-04-03T15:58:30;101882.81;;;14.18;42.70
68145;BME280;55400;51.824;-0.196;2023-04-03T16:02:30;101882.81;;;14.33;42.67
68145;BME280;55400;51.824;-0.196;2023-04-03T16:06:30;101881.42;;;14.47;41.73
68145;BME280;55400;51.824;-0.196;2023-04-03T16:10:30;101881.52;;;14.55;42.74
68145;BME280;55400;51.824;-0.196;2023-04-03T16:14:30;101881.52;;;14.64;41.85
68145;BME280;55400;51.824;-0.196;2023-04-03T16:18:30;101879.31999999999;;;14.65;42.53
68145;BME280;55400;51.824;-0.196;2023-04-03T16:22:30;101877.8;;;14.62;41.64
68145;BME280;55400;51.824;-0.196;2023-04-03T16:26:30;101877.8;;;14.65;41.79
68145;BME280;55400;51.824;-0.196;2023-04-03T16:30:30;101876.36;;;14.82;42.31
68145;BME280;55400;51.824;-0.196;2023-04-03T16:34:30;101876.36;;;14.87;39.66
68145;BME280;55400;51.824;-0.196;2023-04-03T16:38:30;101884.69;;;15.10;41.16
68145;BME280;55400;51.824;-0.196;2023-04-03T16:42:30;101883.78;;;15.27;41.65
68145;BME280;55400;51.824;-0.196;2023-04-03T16:46:30;101876.64;;;15.40;40.37
68145;BME280;55400;51.824;-0.196;2023-04-03T16:50:30;101877.29000000001;;;15.47;39.37
68145;BME280;55400;51.824;-0.196;2023-04-03T16:54:31;101877.29000000001;;;15.52;39.37
68145;BME280;55400;51.824;-0.196;2023-04-03T16:58:30;101870.58;;;15.57;41.16
68145;BME280;55400;51.824;-0.196;2023-04-03T17:02:30;101879.24;;;15.53;41.16
68145;BME280;55400;51.824;-0.196;2023-04-03T17:06:30;101879.49;;;15.54;40.36
68145;BME280;55400;51.824;-0.196;2023-04-03T17:10:30;101879.49;;;15.55;40.36
68145;BME280;55400;51.824;-0.196;2023-04-03T17:14:30;101879.6;;;15.54;40.44
68145;BME280;55400;51.824;-0.196;2023-04-03T17:18:30;101882.37000000001;;;15.61;39.93
68145;BME280;55400;51.824;-0.196;2023-04-03T17:22:30;101887.2;;;15.68;38.68
68145;BME280;55400;51.824;-0.196;2023-04-03T17:26:30;101887.2;;;15.63;38.76
68145;BME280;55400;51.824;-0.196;2023-04-03T17:30:30;101885.17;;;15.56;38.33
68145;BME280;55400;51.824;-0.196;2023-04-03T17:34:31;101885.17;;;15.44;38.58
68145;BME280;55400;51.824;-0.196;2023-04-03T17:42:31;101889.20000000001;;;15.43;36.50
68145;BME280;55400;51.824;-0.196;2023-04-03T17:46:31;101882.62;;;15.27;34.36
68145;BME280;55400;51.824;-0.196;2023-04-03T17:50:31;101879.40999999999;;;14.95;34.36
68145;BME280;55400;51.824;-0.196;2023-04-03T17:54:30;101877.29000000001;;;14.49;35.16
68145;BME280;55400;51.824;-0.196;2023-04-03T17:58:31;101876.83;;;14.12;36.25
68145;BME280;55400;51.824;-0.196;2023-04-03T18:02:30;101876.83;;;13.79;36.25
68145;BME280;55400;51.824;-0.196;2023-04-03T18:06:31;101879.49;;;13.44;37.33
68145;BME280;55400;51.824;-0.196;2023-04-03T18:10:30;101888.03;;;13.13;37.94
68145;BME280;55400;51.824;-0.196;2023-04-03T18:14:31;101888.3;;;12.90;37.94
68145;BME280;55400;51.824;-0.196;2023-04-03T18:18:31;101888.3;;;12.72;38.30
68145;BME280;55400;51.824;-0.196;2023-04-03T18:22:31;101888.81;;;12.58;38.85
68145;BME280;55400;51.824;-0.196;2023-04-03T18:26:31;101887.94;;;12.37;39.29
68145;BME280;55400;51.824;-0.196;2023-04-03T18:30:31;101888.7;;;12.19;38.48
68145;BME280;55400;51.824;-0.196;2023-04-03T18:34:31;101882.83;;;12.03;39.68
68145;BME280;55400;51.824;-0.196;2023-04-03T18:38:31;101884.87;;;11.85;39.18
68145;BME280;55400;51.824;-0.196;2023-04-03T18:42:31;101881.17;;;11.71;39.18
68145;BME280;55400;51.824;-0.196;2023-04-03T18:46:31;101883.72;;;11.60;39.75
68145;BME280;55400;51.824;-0.196;2023-04-03T18:50:31;101887.86;;;11.46;40.21
68145;BME280;55400;51.824;-0.196;2023-04-03T18:54:31;101888.33;;;11.33;40.08
68145;BME280;55400;51.824;-0.196;2023-04-03T18:58:31;101888.33;;;11.21;40.25
68145;BME280;55400;51.824;-0.196;2023-04-03T19:02:31;101906.87000000001;;;11.12;40.72
68145;BME280;55400;51.824;-0.196;2023-04-03T19:06:31;101911.28;;;10.97;40.92
68145;BME280;55400;51.824;-0.196;2023-04-03T19:10:31;101909.27;;;10.86;40.92
68145;BME280;55400;51.824;-0.196;2023-04-03T19:14:31;101909.27;;;10.73;41.24
68145;BME280;55400;51.824;-0.196;2023-04-03T19:18:31;101916.42;;;10.68;41.81
68145;BME280;55400;51.824;-0.196;2023-04-03T19:22:31;101923.94;;;10.56;42.61
68145;BME280;55400;51.824;-0.196;2023-04-03T19:26:31;101930.40999999999;;;10.47;42.61
68145;BME280;55400;51.824;-0.196;2023-04-03T19:30:31;101932.37000000001;;;10.40;43.19
68145;BME280;55400;51.824;-0.196;2023-04-03T19:34:31;101934.58;;;10.32;43.19
68145;BME280;55400;51.824;-0.196;2023-04-03T19:38:31;101934.58;;;10.21;43.58
68145;BME280;55400;51.824;-0.196;2023-04-03T19:42:31;101942.26999999999;;;10.10;44.06
68145;BME280;55400;51.824;-0.196;2023-04-03T19:46:31;101941.08;;;9.97;44.54
68145;BME280;55400;51.824;-0.196;2023-04-03T19:50:31;101942.62999999999;;;9.89;44.54
68145;BME280;55400;51.824;-0.196;2023-04-03T19:54:31;101942.62999999999;;;9.81;45.07
68145;BME280;55400;51.824;-0.196;2023-04-03T19:58:31;101948.56;;;9.66;45.17
68145;BME280;55400;51.824;-0.196;2023-04-03T20:02:31;101948.56;;;9.56;45.17
68145;BME280;55400;51.824;-0.196;2023-04-03T20:06:31;101950.97;;;9.49;45.93
68145;BME280;55400;51.824;-0.196;2023-04-03T20:10:31;101950.98000000001;;;9.40;46.60
68145;BME280;55400;51.824;-0.196;2023-04-03T20:14:31;101951.2;;;9.34;46.60
68145;BME280;55400;51.824;-0.196;2023-04-03T20:18:31;101954.28;;;9.25;46.76
68145;BME280;55400;51.824;-0.196;2023-04-03T20:22:31;101959.92;;;9.17;47.10
68145;BME280;55400;51.824;-0.196;2023-04-03T20:26:31;101959.92;;;9.09;47.10
68145;BME280;55400;51.824;-0.196;2023-04-03T20:30:31;101961.01999999999;;;9.03;47.36
68145;BME280;55400;51.824;-0.196;2023-04-03T20:34:31;101960.24;;;8.99;47.73
68145;BME280;55400;51.824;-0.196;2023-04-03T20:38:31;101960.51999999999;;;8.93;48.20
68145;BME280;55400;51.824;-0.196;2023-04-03T20:42:31;101963.65;;;8.86;47.90
68145;BME280;55400;51.824;-0.196;2023-04-03T20:46:31;101965.99;;;8.80;47.90
68145;BME280;55400;51.824;-0.196;2023-04-03T20:50:31;101969.76;;;8.77;48.32
68145;BME280;55400;51.824;-0.196;2023-04-03T20:54:31;101969.76;;;8.74;48.07
68145;BME280;55400;51.824;-0.196;2023-04-03T20:58:31;101956.33;;;8.66;48.45
68145;BME280;55400;51.824;-0.196;2023-04-03T21:02:31;101956.33;;;8.59;48.45
68145;BME280;55400;51.824;-0.196;2023-04-03T21:22:31;101953.35;;;8.24;49.16
68145;BME280;55400;51.824;-0.196;2023-04-03T21:26:32;101953.35;;;8.20;49.16
68145;BME280;55400;51.824;-0.196;2023-04-03T21:30:31;101945.15;;;8.16;49.18
68145;BME280;55400;51.824;-0.196;2023-04-03T21:34:31;101945.76;;;8.13;48.97
68145;BME280;55400;51.824;-0.196;2023-04-03T21:38:31;101937.33;;;8.09;48.84